Alma, Nebraska
Current Conditions -  °F | °C
As of 8:15 AM on Thursday 29 Jan 2015 (Local Time) from KHDE Reporting Station
Overcast Overcast  
Wind Chill: 23°   Ceiling: 2800
Heat Index: 36°   Visibility: 10mi
Dew Point: 24°   Wind: 26mph
Humidity: 62%   Direction: 350°N
Pressure: 30.4"   Gusts: 33mph
Location:  40.1°N, 99.36°W
Report Text: KHDE 291415Z AUTO 35023G29KT 10SM OVC028 02/M04 A3040 RMK AO2 T00201045
Loading
Personal Weather Stations






























Interactive Weather Map New forecast layout! Learn more

10-Day Weather Forecast

Advertisements
Track Severe Weather on mobile